Portada
METAR-TAF:

METAR-TAF

Aeroports :

Wemindji, Quebec, Canadà

latitud: 53-00-39N, longitud: 078-49-49W, altitud: 15 m

Observació

L'informe es va fer fa 4 hores i 50 minuts, a les 20:00 UTC
Vent 7 kt del Est/Nord-Est
Temperatura 2°C
Humitat 60%
Pressió 1018 hPa
Visibilitat: 24.1 km
Cel ennuvolat a una alçada de 6600 ft
Cel cobert a una alçada de 7700 ft

METAR: CYNC 212000Z 07007KT 15SM BKN066 OVC077 02/M05 A3005 RMK AC4AS4 LAST STFD OBS/NEXT 221300UTC SLP178

Hora: 20:50 (00:50 UTC)


TAF: manca

Observacions i pronòstics meteorològics de més de 4000 aeroports (METAR i TAF).

Les estacions disponibles són els punts grocs i vermells al mapa.

Posi el ratolí al punt desitjat per veure el nom de l'estació.

Feu clic per veure les observacions i els pronòstics meteorològics.

Per canviar el mapa: feu clic els botons verds amb una creu de color negre per apropar; al botó verd amb un guió per allunyar la imatge; o en les fletxes verdes per a mapes adjacents.


METAR-TAF: